Time;durP1;ratioP1;P1;durP2;ratioP2;P2;SDS_P1;SDS_P2;PMS_P1;PMS_P2;Temp;Humidity;BMP_temperature;BMP_pressure;BME280_temperature;BME280_humidity;BME280_pressure;Samples;Min_cycle;Max_cycle;Signal;HPM_P1;HPM_P2
2023/10/18 00:02:44;;;;;;;0.52;0.52;;;;;;;;;;6307637;28;20298;-72
2023/10/18 00:05:48;;;;;;;0.80;0.80;;;;;;;;;;6307070;28;20309;-70
2023/10/18 00:08:57;;;;;;;0.60;0.60;;;;;;;;;;6307649;28;20298;-72
2023/10/18 00:12:01;;;;;;;0.60;0.60;;;;;;;;;;6291322;28;20307;-71
2023/10/18 00:15:07;;;;;;;1.30;0.80;;;;;;;;;;6282563;28;20310;-70
2023/10/18 00:18:12;;;;;;;0.60;0.60;;;;;;;;;;6281844;28;20294;-71
2023/10/18 00:21:16;;;;;;;0.70;0.70;;;;;;;;;;6282377;28;20604;-70
2023/10/18 00:24:20;;;;;;;0.52;0.52;;;;;;;;;;6282391;28;20291;-70
2023/10/18 00:27:25;;;;;;;0.70;0.70;;;;;;;;;;6283465;28;20347;-70
2023/10/18 00:30:30;;;;;;;1.00;0.55;;;;;;;;;;6282334;28;20295;-71
2023/10/18 00:33:35;;;;;;;0.60;0.60;;;;;;;;;;6304061;28;20291;-71
2023/10/18 00:36:40;;;;;;;0.60;0.60;;;;;;;;;;6302986;28;20294;-70
2023/10/18 00:39:45;;;;;;;0.60;0.60;;;;;;;;;;6305201;28;20298;-70
2023/10/18 00:42:52;;;;;;;0.50;0.50;;;;;;;;;;6306565;28;20314;-71
2023/10/18 00:45:57;;;;;;;1.55;0.63;;;;;;;;;;6305582;28;20595;-70
2023/10/18 00:49:13;;;;;;;0.60;0.60;;;;;;;;;;6304490;28;20266;-71
2023/10/18 00:52:17;;;;;;;0.60;0.60;;;;;;;;;;6306462;28;20283;-71
2023/10/18 00:55:22;;;;;;;0.65;0.65;;;;;;;;;;6306304;28;20286;-70
2023/10/18 00:58:27;;;;;;;0.80;0.80;;;;;;;;;;6305364;28;20298;-71
2023/10/18 01:01:35;;;;;;;0.60;0.60;;;;;;;;;;6306152;28;20298;-72
2023/10/18 01:04:41;;;;;;;0.60;0.60;;;;;;;;;;6306074;28;20286;-71
2023/10/18 01:07:46;;;;;;;0.65;0.65;;;;;;;;;;6306668;28;20298;-73
2023/10/18 01:10:51;;;;;;;0.60;0.60;;;;;;;;;;6300547;28;20290;-70
2023/10/18 01:13:56;;;;;;;0.70;0.70;;;;;;;;;;6279563;28;20757;-70
2023/10/18 01:17:01;;;;;;;0.57;0.45;;;;;;;;;;6280151;28;20612;-72
2023/10/18 01:20:13;;;;;;;0.60;0.60;;;;;;;;;;6281303;28;20817;-69
2023/10/18 01:23:17;;;;;;;0.50;0.50;;;;;;;;;;6279590;28;20587;-70
2023/10/18 01:26:24;;;;;;;0.85;0.80;;;;;;;;;;6279530;28;20398;-70
2023/10/18 01:29:28;;;;;;;1.10;0.60;;;;;;;;;;6280678;28;20299;-72
2023/10/18 01:32:33;;;;;;;0.60;0.60;;;;;;;;;;6294096;28;20294;-71
2023/10/18 01:35:46;;;;;;;0.68;0.68;;;;;;;;;;6303659;28;20294;-70
2023/10/18 01:38:52;;;;;;;0.70;0.70;;;;;;;;;;6304331;28;20321;-71
2023/10/18 01:42:01;;;;;;;1.20;0.80;;;;;;;;;;6303596;28;20590;-69
2023/10/18 01:45:07;;;;;;;3.10;0.70;;;;;;;;;;6305689;28;20298;-70
2023/10/18 01:48:17;;;;;;;0.55;0.55;;;;;;;;;;6306329;28;20322;-69
2023/10/18 01:51:21;;;;;;;0.60;0.60;;;;;;;;;;6304459;28;20302;-70
2023/10/18 01:54:26;;;;;;;0.75;0.75;;;;;;;;;;6305797;28;20290;-73
2023/10/18 01:57:32;;;;;;;0.70;0.70;;;;;;;;;;6306082;28;20318;-71
2023/10/18 02:00:37;;;;;;;1.60;0.63;;;;;;;;;;6303609;28;20293;-70
2023/10/18 02:03:44;;;;;;;0.80;0.80;;;;;;;;;;6306244;28;20302;-70
2023/10/18 02:06:50;;;;;;;0.65;0.65;;;;;;;;;;6305375;28;20307;-71
2023/10/18 02:09:57;;;;;;;0.80;0.80;;;;;;;;;;6303002;28;20321;-71
2023/10/18 02:13:05;;;;;;;0.80;0.80;;;;;;;;;;6281769;28;20259;-71
2023/10/18 02:16:14;;;;;;;0.80;0.80;;;;;;;;;;6280445;28;20568;-75
2023/10/18 02:19:21;;;;;;;0.70;0.70;;;;;;;;;;6279076;28;20287;-71
2023/10/18 02:22:27;;;;;;;0.80;0.80;;;;;;;;;;6279183;28;20452;-70
2023/10/18 02:25:42;;;;;;;0.70;0.70;;;;;;;;;;6280264;28;20236;-71
2023/10/18 02:28:48;;;;;;;0.68;0.68;;;;;;;;;;6278942;28;20654;-71
2023/10/18 02:31:56;;;;;;;0.70;0.70;;;;;;;;;;6287155;28;20400;-71
2023/10/18 02:35:01;;;;;;;0.80;0.80;;;;;;;;;;6302847;28;20596;-70
2023/10/18 02:38:09;;;;;;;0.90;0.90;;;;;;;;;;6305621;28;20294;-70
2023/10/18 02:41:19;;;;;;;0.70;0.70;;;;;;;;;;6304936;28;20309;-72
2023/10/18 02:44:28;;;;;;;0.60;0.60;;;;;;;;;;6307257;28;20619;-73
2023/10/18 02:47:34;;;;;;;0.70;0.70;;;;;;;;;;6307740;28;20314;-71
2023/10/18 02:50:38;;;;;;;0.60;0.60;;;;;;;;;;6309353;28;20319;-70
2023/10/18 02:53:42;;;;;;;0.80;0.80;;;;;;;;;;6309381;28;20290;-70
2023/10/18 02:56:51;;;;;;;0.70;0.70;;;;;;;;;;6307651;28;20551;-70
2023/10/18 02:59:56;;;;;;;0.68;0.68;;;;;;;;;;6309021;28;20298;-70
2023/10/18 03:03:01;;;;;;;0.80;0.80;;;;;;;;;;6289442;28;20364;-72
2023/10/18 03:06:13;;;;;;;0.60;0.60;;;;;;;;;;6301806;28;20601;-71
2023/10/18 03:09:27;;;;;;;0.60;0.60;;;;;;;;;;6284175;28;20593;-71
2023/10/18 03:12:36;;;;;;;0.70;0.70;;;;;;;;;;6305241;28;20494;-70
2023/10/18 03:15:53;;;;;;;1.75;0.70;;;;;;;;;;6308572;28;20330;-72
2023/10/18 03:19:10;;;;;;;0.60;0.60;;;;;;;;;;6301058;28;20295;-71
2023/10/18 03:22:15;;;;;;;0.60;0.60;;;;;;;;;;6282399;28;20651;-71
2023/10/18 03:25:27;;;;;;;0.88;0.80;;;;;;;;;;6281580;28;20302;-73
2023/10/18 03:28:35;;;;;;;0.60;0.60;;;;;;;;;;6282111;28;20299;-71
2023/10/18 03:31:43;;;;;;;0.60;0.60;;;;;;;;;;6289047;28;20294;-70
2023/10/18 03:34:47;;;;;;;0.50;0.50;;;;;;;;;;6307103;28;20438;-75
2023/10/18 03:37:56;;;;;;;0.75;0.70;;;;;;;;;;6287277;28;20294;-70
2023/10/18 03:41:07;;;;;;;0.52;0.52;;;;;;;;;;6283441;28;20303;-72
2023/10/18 03:44:13;;;;;;;0.70;0.70;;;;;;;;;;6283269;28;20575;-72
2023/10/18 03:47:24;;;;;;;0.60;0.60;;;;;;;;;;6283229;28;20377;-71
2023/10/18 03:50:35;;;;;;;0.60;0.60;;;;;;;;;;6281388;28;20302;-71
2023/10/18 03:53:40;;;;;;;0.70;0.70;;;;;;;;;;6281469;28;20303;-72
2023/10/18 03:56:47;;;;;;;0.70;0.70;;;;;;;;;;6283263;28;20294;-72
2023/10/18 03:59:52;;;;;;;0.63;0.63;;;;;;;;;;6282730;28;20576;-71
2023/10/18 04:02:59;;;;;;;0.70;0.70;;;;;;;;;;6282661;28;20299;-72
2023/10/18 04:06:07;;;;;;;0.65;0.65;;;;;;;;;;6284053;28;20283;-70
2023/10/18 04:09:16;;;;;;;0.75;0.75;;;;;;;;;;6282373;28;20438;-71
2023/10/18 04:12:22;;;;;;;3.08;0.65;;;;;;;;;;6304792;28;20494;-70
2023/10/18 04:15:32;;;;;;;0.52;0.52;;;;;;;;;;6307165;28;20242;-71
2023/10/18 04:18:37;;;;;;;0.60;0.60;;;;;;;;;;6306729;28;20294;-72
2023/10/18 04:21:51;;;;;;;0.73;0.60;;;;;;;;;;6307373;28;20286;-71
2023/10/18 04:24:55;;;;;;;1.27;0.70;;;;;;;;;;6305673;28;20302;-70
2023/10/18 04:28:00;;;;;;;0.60;0.60;;;;;;;;;;6306685;28;20250;-71
2023/10/18 04:31:08;;;;;;;0.70;0.70;;;;;;;;;;6306498;28;20244;-71
2023/10/18 04:34:18;;;;;;;0.63;0.63;;;;;;;;;;6281765;28;20295;-71
2023/10/18 04:37:23;;;;;;;0.60;0.60;;;;;;;;;;6280458;28;20609;-70
2023/10/18 04:40:28;;;;;;;0.70;0.70;;;;;;;;;;6281433;28;20615;-70
2023/10/18 04:43:33;;;;;;;0.60;0.60;;;;;;;;;;6279699;28;20283;-71
2023/10/18 04:46:37;;;;;;;0.50;0.50;;;;;;;;;;6282123;28;20295;-71
2023/10/18 04:49:50;;;;;;;0.65;0.65;;;;;;;;;;6281553;28;20287;-71
2023/10/18 04:52:57;;;;;;;0.60;0.60;;;;;;;;;;6281372;28;20307;-72
2023/10/18 04:56:03;;;;;;;0.60;0.60;;;;;;;;;;6281881;28;20309;-72
2023/10/18 04:59:11;;;;;;;0.52;0.52;;;;;;;;;;6281184;28;20302;-73
2023/10/18 05:02:18;;;;;;;1.23;0.60;;;;;;;;;;6281629;28;20307;-71
2023/10/18 05:05:25;;;;;;;2.83;0.70;;;;;;;;;;6281087;28;20497;-70
2023/10/18 05:08:30;;;;;;;0.82;0.82;;;;;;;;;;6281527;28;20504;-71
2023/10/18 05:11:46;;;;;;;0.60;0.60;;;;;;;;;;6298565;28;20313;-71
2023/10/18 05:14:59;;;;;;;0.50;0.50;;;;;;;;;;6305927;28;20488;-71
2023/10/18 05:18:15;;;;;;;0.50;0.50;;;;;;;;;;6295991;28;20327;-72
2023/10/18 05:21:21;;;;;;;1.40;0.60;;;;;;;;;;6281085;28;20295;-70
2023/10/18 05:24:26;;;;;;;1.95;0.60;;;;;;;;;;6280431;28;20375;-72
2023/10/18 05:27:35;;;;;;;1.17;0.70;;;;;;;;;;6279343;28;20302;-72
2023/10/18 05:34:04;;;;;;;0.65;0.65;;;;;;;;;;6279719;28;20298;-70
2023/10/18 05:37:14;;;;;;;0.82;0.55;;;;;;;;;;6279255;28;20254;-72
2023/10/18 05:43:42;;;;;;;1.02;0.50;;;;;;;;;;6280275;28;20287;-72
2023/10/18 05:46:47;;;;;;;0.50;0.50;;;;;;;;;;6281093;28;20299;-71
2023/10/18 05:49:53;;;;;;;0.65;0.50;;;;;;;;;;6280278;28;20374;-72
2023/10/18 05:52:59;;;;;;;0.63;0.63;;;;;;;;;;6280291;28;20286;-73
2023/10/18 05:56:07;;;;;;;0.70;0.70;;;;;;;;;;6281000;28;20359;-72
2023/10/18 05:59:27;;;;;;;0.75;0.75;;;;;;;;;;6280136;28;20683;-70
2023/10/18 06:02:32;;;;;;;1.20;0.60;;;;;;;;;;6281250;28;20344;-72
2023/10/18 06:05:35;;;;;;;0.65;0.65;;;;;;;;;;6279979;28;20298;-71
2023/10/18 06:08:42;;;;;;;0.80;0.80;;;;;;;;;;6280073;28;20627;-72
2023/10/18 06:11:48;;;;;;;0.63;0.63;;;;;;;;;;6299359;28;20622;-73
2023/10/18 06:14:53;;;;;;;0.70;0.70;;;;;;;;;;6305273;28;20298;-73
2023/10/18 06:17:57;;;;;;;0.60;0.60;;;;;;;;;;6310034;28;20294;-70
2023/10/18 06:21:11;;;;;;;0.60;0.60;;;;;;;;;;6310259;28;20302;-71
2023/10/18 06:24:16;;;;;;;0.43;0.43;;;;;;;;;;6309398;28;20345;-73
2023/10/18 06:27:20;;;;;;;0.60;0.60;;;;;;;;;;6310190;28;20294;-72
2023/10/18 06:30:24;;;;;;;0.60;0.60;;;;;;;;;;6309292;28;20294;-71
2023/10/18 06:33:35;;;;;;;0.68;0.68;;;;;;;;;;6288844;28;20338;-72
2023/10/18 06:36:39;;;;;;;0.50;0.50;;;;;;;;;;6283182;28;20660;-70
2023/10/18 06:39:51;;;;;;;0.70;0.70;;;;;;;;;;6284685;28;20295;-71
2023/10/18 06:42:55;;;;;;;0.75;0.75;;;;;;;;;;6283754;28;20311;-69
2023/10/18 06:45:59;;;;;;;0.60;0.60;;;;;;;;;;6283370;28;20493;-71
2023/10/18 06:49:10;;;;;;;0.70;0.70;;;;;;;;;;6284406;28;20432;-71
2023/10/18 06:52:17;;;;;;;0.77;0.77;;;;;;;;;;6284590;28;20287;-71
2023/10/18 06:55:35;;;;;;;0.80;0.80;;;;;;;;;;6284423;28;20299;-72
2023/10/18 06:58:42;;;;;;;0.68;0.68;;;;;;;;;;6284134;28;20302;-71
2023/10/18 07:01:57;;;;;;;0.60;0.60;;;;;;;;;;6284578;28;20576;-72
2023/10/18 07:05:03;;;;;;;0.70;0.70;;;;;;;;;;6284035;28;20254;-71
2023/10/18 07:08:18;;;;;;;0.80;0.80;;;;;;;;;;6283932;28;20310;-72
2023/10/18 07:11:26;;;;;;;1.55;0.70;;;;;;;;;;6299565;28;20319;-71
2023/10/18 07:14:48;;;;;;;0.80;0.80;;;;;;;;;;6308519;28;20286;-71
2023/10/18 07:17:53;;;;;;;0.70;0.70;;;;;;;;;;6308490;28;20294;-71
2023/10/18 07:21:03;;;;;;;0.90;0.90;;;;;;;;;;6309451;28;20459;-70
2023/10/18 07:24:10;;;;;;;1.00;0.90;;;;;;;;;;6308628;28;20298;-70
2023/10/18 07:27:17;;;;;;;0.93;0.93;;;;;;;;;;6308699;28;20299;-70
2023/10/18 07:30:29;;;;;;;0.88;0.88;;;;;;;;;;6308445;28;20294;-70
2023/10/18 07:33:34;;;;;;;1.65;1.30;;;;;;;;;;6287444;28;20291;-71
2023/10/18 07:36:38;;;;;;;1.65;1.25;;;;;;;;;;6282164;28;20287;-72
2023/10/18 07:39:44;;;;;;;1.20;1.20;;;;;;;;;;6283718;28;20333;-71
2023/10/18 07:42:51;;;;;;;1.15;1.15;;;;;;;;;;6281737;28;20306;-68
2023/10/18 07:45:57;;;;;;;2.05;1.20;;;;;;;;;;6283170;28;20571;-70
2023/10/18 07:49:11;;;;;;;1.30;1.20;;;;;;;;;;6283150;28;20607;-71
2023/10/18 07:52:15;;;;;;;0.93;0.93;;;;;;;;;;6283576;28;20548;-68
2023/10/18 07:55:19;;;;;;;0.80;0.80;;;;;;;;;;6283131;28;20278;-71
2023/10/18 07:58:24;;;;;;;1.10;1.10;;;;;;;;;;6282831;28;20386;-70
2023/10/18 08:01:46;;;;;;;0.93;0.93;;;;;;;;;;6283386;28;20295;-71
2023/10/18 08:04:51;;;;;;;1.17;1.17;;;;;;;;;;6281059;28;20460;-70
2023/10/18 08:07:57;;;;;;;1.25;1.25;;;;;;;;;;6282622;28;20287;-70
2023/10/18 08:11:04;;;;;;;1.38;1.38;;;;;;;;;;6294725;28;20586;-71
2023/10/18 08:14:16;;;;;;;1.48;1.48;;;;;;;;;;6307502;28;20286;-71
2023/10/18 08:17:42;;;;;;;3.13;1.30;;;;;;;;;;6308169;28;20290;-71
2023/10/18 08:21:06;;;;;;;1.65;1.55;;;;;;;;;;6306974;28;20473;-71
2023/10/18 08:24:19;;;;;;;1.60;1.50;;;;;;;;;;6307788;28;20326;-69
2023/10/18 08:27:23;;;;;;;3.67;1.90;;;;;;;;;;6308309;28;20591;-70
2023/10/18 08:31:02;;;;;;;1.80;1.70;;;;;;;;;;6306943;28;20306;-71
2023/10/18 08:34:05;;;;;;;1.90;1.80;;;;;;;;;;6281257;28;20319;-71
2023/10/18 08:37:11;;;;;;;2.00;1.90;;;;;;;;;;6280338;28;20334;-70
2023/10/18 08:40:27;;;;;;;1.88;1.75;;;;;;;;;;6281757;28;20279;-71
2023/10/18 08:43:33;;;;;;;1.95;1.95;;;;;;;;;;6282228;28;20323;-70
2023/10/18 08:46:46;;;;;;;2.35;2.00;;;;;;;;;;6282592;28;20314;-70
2023/10/18 08:49:53;;;;;;;2.10;2.00;;;;;;;;;;6282178;28;20311;-72
2023/10/18 08:52:57;;;;;;;2.20;2.17;;;;;;;;;;6281911;28;20291;-71
2023/10/18 08:56:05;;;;;;;2.05;2.03;;;;;;;;;;6282150;28;20398;-71
2023/10/18 08:59:11;;;;;;;2.10;2.00;;;;;;;;;;6281415;28;20302;-70
2023/10/18 09:02:22;;;;;;;2.25;2.10;;;;;;;;;;6280564;28;20306;-70
2023/10/18 09:05:26;;;;;;;3.53;2.33;;;;;;;;;;6281215;28;20304;-71
2023/10/18 09:08:35;;;;;;;2.53;2.10;;;;;;;;;;6281208;28;20299;-70
2023/10/18 09:11:48;;;;;;;2.30;2.20;;;;;;;;;;6299526;28;20299;-71
2023/10/18 09:14:50;;;;;;;2.20;2.10;;;;;;;;;;6304240;28;20301;-70
2023/10/18 09:17:57;;;;;;;3.05;2.30;;;;;;;;;;6306187;28;20474;-71
2023/10/18 09:21:07;;;;;;;2.88;1.98;;;;;;;;;;6306448;28;20375;-71
2023/10/18 09:24:13;;;;;;;2.10;2.00;;;;;;;;;;6306047;28;20503;-72
2023/10/18 09:27:22;;;;;;;2.10;2.10;;;;;;;;;;6306682;28;20301;-71
2023/10/18 09:30:29;;;;;;;4.07;2.33;;;;;;;;;;6305827;28;20294;-72
2023/10/18 09:33:36;;;;;;;2.20;2.10;;;;;;;;;;6284617;28;20311;-71
2023/10/18 09:36:40;;;;;;;2.38;2.28;;;;;;;;;;6279585;28;20299;-70
2023/10/18 09:39:55;;;;;;;2.47;2.20;;;;;;;;;;6280841;28;20306;-71
2023/10/18 09:43:00;;;;;;;2.15;2.05;;;;;;;;;;6279900;28;20393;-70
2023/10/18 09:46:05;;;;;;;2.28;2.15;;;;;;;;;;6281578;28;20247;-73
2023/10/18 09:49:20;;;;;;;1.70;1.70;;;;;;;;;;6282160;28;20575;-71
2023/10/18 09:52:30;;;;;;;1.80;1.70;;;;;;;;;;6289371;28;20299;-70
2023/10/18 09:55:35;;;;;;;1.85;1.75;;;;;;;;;;6289125;28;20283;-71
2023/10/18 09:58:43;;;;;;;2.17;1.80;;;;;;;;;;6288600;28;20354;-72
2023/10/18 10:02:00;;;;;;;2.38;1.73;;;;;;;;;;6289048;28;20282;-70
2023/10/18 10:05:24;;;;;;;2.45;2.05;;;;;;;;;;6288734;28;20302;-70
2023/10/18 10:08:31;;;;;;;2.38;1.98;;;;;;;;;;6288970;28;20310;-70
2023/10/18 10:11:38;;;;;;;2.03;1.92;;;;;;;;;;6305437;28;20590;-70
2023/10/18 10:14:43;;;;;;;3.55;1.70;;;;;;;;;;6312953;28;20646;-69
2023/10/18 10:17:56;;;;;;;1.60;1.60;;;;;;;;;;6313340;28;20306;-70
2023/10/18 10:21:06;;;;;;;2.03;1.92;;;;;;;;;;6314012;28;20290;-70
2023/10/18 10:30:48;;;;;;;1.90;1.80;;;;;;;;;;6312857;28;20298;-73
2023/10/18 10:34:06;;;;;;;1.65;1.63;;;;;;;;;;6289670;28;20299;-73
2023/10/18 10:37:17;;;;;;;1.80;1.70;;;;;;;;;;6285995;28;20272;-71
2023/10/18 10:44:10;;;;;;;3.17;1.50;;;;;;;;;;6286223;28;20307;-70
2023/10/18 10:47:30;;;;;;;4.10;1.63;;;;;;;;;;6288850;28;20322;-71
2023/10/18 10:50:43;;;;;;;2.30;1.60;;;;;;;;;;6287876;28;20398;-70
2023/10/18 10:53:50;;;;;;;1.73;1.60;;;;;;;;;;6287879;28;20410;-71
2023/10/18 10:56:56;;;;;;;1.70;1.60;;;;;;;;;;6286809;28;20482;-70
2023/10/18 11:00:22;;;;;;;1.92;1.63;;;;;;;;;;6287904;28;20287;-71
2023/10/18 11:03:29;;;;;;;1.60;1.42;;;;;;;;;;6283722;28;20437;-71
2023/10/18 11:06:33;;;;;;;2.70;1.88;;;;;;;;;;6284202;28;20311;-71
2023/10/18 11:09:39;;;;;;;1.60;1.50;;;;;;;;;;6284818;28;20337;-72
2023/10/18 11:12:45;;;;;;;1.80;1.70;;;;;;;;;;6308602;28;20310;-72
2023/10/18 11:15:51;;;;;;;3.05;1.63;;;;;;;;;;6309222;28;20302;-73
2023/10/18 11:18:55;;;;;;;2.45;1.63;;;;;;;;;;6307562;28;20310;-70
2023/10/18 11:21:59;;;;;;;1.60;1.50;;;;;;;;;;6309096;28;20243;-72
2023/10/18 11:25:09;;;;;;;1.70;1.55;;;;;;;;;;6308115;28;20290;-70
2023/10/18 11:28:28;;;;;;;1.30;1.30;;;;;;;;;;6308185;28;20366;-72
2023/10/18 11:31:33;;;;;;;1.23;1.23;;;;;;;;;;6304166;28;20315;-71
2023/10/18 11:34:42;;;;;;;1.40;1.30;;;;;;;;;;6283453;28;20295;-71
2023/10/18 11:37:47;;;;;;;5.18;1.40;;;;;;;;;;6282150;28;20294;-71
2023/10/18 11:40:52;;;;;;;1.40;1.40;;;;;;;;;;6283430;28;20466;-70
2023/10/18 11:43:56;;;;;;;1.73;1.73;;;;;;;;;;6282781;28;20306;-71
2023/10/18 11:47:11;;;;;;;1.58;1.30;;;;;;;;;;6282044;28;20489;-72
2023/10/18 11:50:15;;;;;;;4.40;1.40;;;;;;;;;;6283127;28;20307;-69
2023/10/18 11:53:23;;;;;;;1.77;1.60;;;;;;;;;;6283137;28;20306;-71
2023/10/18 11:56:36;;;;;;;1.20;1.17;;;;;;;;;;6283608;28;20370;-71
2023/10/18 11:59:54;;;;;;;1.50;1.40;;;;;;;;;;6282910;28;20482;-71
2023/10/18 12:03:01;;;;;;;2.75;1.33;;;;;;;;;;6282854;28;20336;-71
2023/10/18 12:06:11;;;;;;;1.00;1.00;;;;;;;;;;6283186;28;20319;-71
2023/10/18 12:09:30;;;;;;;1.05;0.98;;;;;;;;;;6282934;28;20295;-72
2023/10/18 12:12:36;;;;;;;1.88;1.77;;;;;;;;;;6282222;28;20320;-72
2023/10/18 12:15:40;;;;;;;1.48;1.48;;;;;;;;;;6282585;28;20298;-71
2023/10/18 12:18:43;;;;;;;1.60;1.60;;;;;;;;;;6282602;28;20306;-70
2023/10/18 12:21:54;;;;;;;4.20;1.65;;;;;;;;;;6283183;28;20298;-69
2023/10/18 12:24:58;;;;;;;1.55;1.20;;;;;;;;;;6281513;28;20298;-70
2023/10/18 12:28:04;;;;;;;1.40;1.30;;;;;;;;;;6282286;28;20346;-71
2023/10/18 12:31:12;;;;;;;2.05;1.48;;;;;;;;;;6284010;28;20283;-71
2023/10/18 12:34:21;;;;;;;2.20;1.55;;;;;;;;;;6307214;28;20575;-70
2023/10/18 12:37:26;;;;;;;3.47;1.40;;;;;;;;;;6305716;28;20282;-70
2023/10/18 12:40:31;;;;;;;1.30;1.30;;;;;;;;;;6306795;28;20315;-71
2023/10/18 12:43:44;;;;;;;1.50;1.50;;;;;;;;;;6305135;28;20463;-71
2023/10/18 12:46:50;;;;;;;1.40;1.40;;;;;;;;;;6307629;28;20290;-71
2023/10/18 12:49:56;;;;;;;1.35;1.30;;;;;;;;;;6306578;28;20603;-72
2023/10/18 12:53:16;;;;;;;1.40;1.40;;;;;;;;;;6306620;28;20294;-71
2023/10/18 12:56:31;;;;;;;1.42;1.33;;;;;;;;;;6307040;28;20306;-72
2023/10/18 12:59:38;;;;;;;1.50;1.38;;;;;;;;;;6307032;28;20623;-71
2023/10/18 13:02:51;;;;;;;3.03;2.78;;;;;;;;;;6306748;28;20612;-71
2023/10/18 13:05:54;;;;;;;1.50;1.50;;;;;;;;;;6307268;28;20334;-73
2023/10/18 13:09:15;;;;;;;1.50;1.50;;;;;;;;;;6304882;28;20483;-71
2023/10/18 13:12:23;;;;;;;1.33;1.33;;;;;;;;;;6283613;28;20302;-70
2023/10/18 13:15:33;;;;;;;1.48;1.40;;;;;;;;;;6281505;28;20307;-70
2023/10/18 13:18:39;;;;;;;2.10;1.40;;;;;;;;;;6281308;28;20290;-70
2023/10/18 13:21:44;;;;;;;2.03;1.92;;;;;;;;;;6282370;28;20295;-71
2023/10/18 13:24:48;;;;;;;1.98;1.80;;;;;;;;;;6281290;28;20299;-71
2023/10/18 13:27:54;;;;;;;1.50;1.50;;;;;;;;;;6303686;28;20495;-71
2023/10/18 13:31:04;;;;;;;2.28;1.23;;;;;;;;;;6305241;28;20290;-72
2023/10/18 13:34:13;;;;;;;1.30;1.15;;;;;;;;;;6280511;28;20499;-71
2023/10/18 13:37:23;;;;;;;1.20;1.17;;;;;;;;;;6279209;28;20287;-70
2023/10/18 13:40:27;;;;;;;1.23;1.23;;;;;;;;;;6280932;28;20329;-71
2023/10/18 13:43:31;;;;;;;1.35;1.35;;;;;;;;;;6280922;28;20307;-71
2023/10/18 13:46:37;;;;;;;2.05;1.95;;;;;;;;;;6281696;28;20295;-71
2023/10/18 13:49:59;;;;;;;1.40;1.30;;;;;;;;;;6280939;28;20291;-71
2023/10/18 13:53:03;;;;;;;1.65;1.30;;;;;;;;;;6278818;28;20433;-71
2023/10/18 13:56:09;;;;;;;1.42;1.42;;;;;;;;;;6281391;28;20326;-70
2023/10/18 13:59:14;;;;;;;2.60;1.13;;;;;;;;;;6279805;28;20479;-70
2023/10/18 14:02:22;;;;;;;1.92;1.30;;;;;;;;;;6280713;28;20295;-72
2023/10/18 14:05:26;;;;;;;1.50;1.40;;;;;;;;;;6280618;28;20303;-71
2023/10/18 14:08:30;;;;;;;1.38;1.38;;;;;;;;;;6280662;28;20522;-71
2023/10/18 14:11:34;;;;;;;1.42;1.33;;;;;;;;;;6298110;28;20349;-71
2023/10/18 14:14:38;;;;;;;1.65;1.63;;;;;;;;;;6305187;28;20293;-70
2023/10/18 14:17:44;;;;;;;1.50;1.40;;;;;;;;;;6305238;28;20298;-70
2023/10/18 14:20:51;;;;;;;1.30;1.30;;;;;;;;;;6305518;28;20302;-71
2023/10/18 14:23:59;;;;;;;1.60;1.50;;;;;;;;;;6305386;28;20305;-74
2023/10/18 14:27:03;;;;;;;1.55;1.30;;;;;;;;;;6305305;28;20366;-73
2023/10/18 14:30:12;;;;;;;1.50;1.40;;;;;;;;;;6304815;28;20302;-73
2023/10/18 14:33:17;;;;;;;1.58;1.50;;;;;;;;;;6285998;28;20346;-72
2023/10/18 14:36:34;;;;;;;1.85;1.35;;;;;;;;;;6279736;28;20326;-71
2023/10/18 14:39:38;;;;;;;1.60;1.60;;;;;;;;;;6284459;28;20307;-73
2023/10/18 14:42:42;;;;;;;1.55;1.50;;;;;;;;;;6284362;28;20666;-72
2023/10/18 14:45:46;;;;;;;2.28;1.25;;;;;;;;;;6284824;28;20310;-72
2023/10/18 14:48:53;;;;;;;2.40;1.50;;;;;;;;;;6284582;28;20298;-71
2023/10/18 14:51:57;;;;;;;1.77;1.67;;;;;;;;;;6283902;28;20370;-72
2023/10/18 14:55:03;;;;;;;1.98;1.40;;;;;;;;;;6284281;28;20314;-70
2023/10/18 14:58:07;;;;;;;2.30;1.50;;;;;;;;;;6284298;28;20296;-71
2023/10/18 15:01:13;;;;;;;1.75;1.65;;;;;;;;;;6284302;28;20255;-71
2023/10/18 15:04:18;;;;;;;1.50;1.42;;;;;;;;;;6284197;28;20295;-73
2023/10/18 15:07:23;;;;;;;2.58;2.22;;;;;;;;;;6284270;28;20287;-71
2023/10/18 15:10:27;;;;;;;3.03;2.03;;;;;;;;;;6291749;28;20307;-72
2023/10/18 15:13:31;;;;;;;3.35;2.20;;;;;;;;;;6308747;28;20488;-72
2023/10/18 15:16:35;;;;;;;2.80;2.05;;;;;;;;;;6309569;28;20298;-71
2023/10/18 15:19:41;;;;;;;2.28;1.80;;;;;;;;;;6308523;28;20510;-71
2023/10/18 15:22:45;;;;;;;1.83;1.50;;;;;;;;;;6308492;28;20297;-71
2023/10/18 15:25:49;;;;;;;1.80;1.70;;;;;;;;;;6308676;28;20300;-71
2023/10/18 15:28:53;;;;;;;2.63;1.90;;;;;;;;;;6308426;28;20286;-70
2023/10/18 15:31:57;;;;;;;1.80;1.80;;;;;;;;;;6301380;28;20572;-71
2023/10/18 15:35:05;;;;;;;1.90;1.80;;;;;;;;;;6282214;28;20306;-72
2023/10/18 15:38:08;;;;;;;1.83;1.80;;;;;;;;;;6283897;28;20287;-71
2023/10/18 15:41:12;;;;;;;4.63;1.90;;;;;;;;;;6284071;28;20307;-71
2023/10/18 15:44:16;;;;;;;2.75;2.00;;;;;;;;;;6282994;28;20310;-72
2023/10/18 15:47:20;;;;;;;2.33;2.20;;;;;;;;;;6283326;28;20290;-72
2023/10/18 15:50:26;;;;;;;2.33;2.22;;;;;;;;;;6282740;28;20350;-70
2023/10/18 15:53:30;;;;;;;2.55;2.08;;;;;;;;;;6283518;28;20299;-71
2023/10/18 15:56:41;;;;;;;2.92;1.98;;;;;;;;;;6283468;28;20300;-71
2023/10/18 15:59:46;;;;;;;1.85;1.80;;;;;;;;;;6282777;28;20487;-71
2023/10/18 16:02:50;;;;;;;2.35;2.05;;;;;;;;;;6282799;28;20299;-72
2023/10/18 16:05:57;;;;;;;3.50;2.17;;;;;;;;;;6283675;28;20299;-70
2023/10/18 16:09:01;;;;;;;1.73;1.60;;;;;;;;;;6283244;28;20620;-71
2023/10/18 16:12:06;;;;;;;2.00;1.90;;;;;;;;;;6304601;28;20306;-71
2023/10/18 16:15:13;;;;;;;2.53;2.10;;;;;;;;;;6307093;28;20405;-72
2023/10/18 16:18:17;;;;;;;3.30;3.05;;;;;;;;;;6307561;28;20295;-72
2023/10/18 16:21:23;;;;;;;2.20;2.08;;;;;;;;;;6308126;28;20290;-71
2023/10/18 16:24:27;;;;;;;2.25;2.08;;;;;;;;;;6307738;28;20492;-72
2023/10/18 16:27:34;;;;;;;2.30;2.17;;;;;;;;;;6307775;28;20588;-72
2023/10/18 16:30:40;;;;;;;1.95;1.83;;;;;;;;;;6307238;28;20298;-72
2023/10/18 16:33:48;;;;;;;2.38;2.13;;;;;;;;;;6282826;28;20326;-71
2023/10/18 16:36:54;;;;;;;2.00;1.90;;;;;;;;;;6280992;28;20291;-71
2023/10/18 16:39:57;;;;;;;4.88;2.05;;;;;;;;;;6281359;28;20318;-72
2023/10/18 16:43:01;;;;;;;2.10;2.00;;;;;;;;;;6281794;28;20303;-70
2023/10/18 16:46:06;;;;;;;1.80;1.70;;;;;;;;;;6282544;28;20271;-70
2023/10/18 16:49:12;;;;;;;3.15;2.03;;;;;;;;;;6280259;28;20608;-71
2023/10/18 16:52:18;;;;;;;4.32;1.90;;;;;;;;;;6282481;28;20290;-73
2023/10/18 16:55:23;;;;;;;1.75;1.63;;;;;;;;;;6279825;28;20475;-71
2023/10/18 16:58:27;;;;;;;2.05;1.73;;;;;;;;;;6281345;28;20290;-72
2023/10/18 17:01:31;;;;;;;4.43;2.40;;;;;;;;;;6281683;28;20318;-70
2023/10/18 17:04:35;;;;;;;2.30;2.15;;;;;;;;;;6281532;28;20298;-72
2023/10/18 17:07:40;;;;;;;2.88;2.35;;;;;;;;;;6280003;28;20526;-71
2023/10/18 17:10:46;;;;;;;2.75;2.13;;;;;;;;;;6291764;28;20294;-71
2023/10/18 17:13:52;;;;;;;6.18;2.78;;;;;;;;;;6305830;28;20317;-73
2023/10/18 17:16:56;;;;;;;2.50;2.40;;;;;;;;;;6303240;28;20286;-72
2023/10/18 17:20:00;;;;;;;2.92;2.78;;;;;;;;;;6280992;28;20588;-71
2023/10/18 17:23:05;;;;;;;2.67;2.22;;;;;;;;;;6281237;28;20294;-72
2023/10/18 17:26:09;;;;;;;2.63;2.40;;;;;;;;;;6281396;28;20513;-72
2023/10/18 17:29:13;;;;;;;3.67;2.80;;;;;;;;;;6280930;28;20307;-73
2023/10/18 17:32:17;;;;;;;5.10;2.70;;;;;;;;;;6292097;28;20306;-72
2023/10/18 17:35:21;;;;;;;2.95;2.75;;;;;;;;;;6304882;28;20627;-70
2023/10/18 17:38:27;;;;;;;2.60;2.50;;;;;;;;;;6303762;28;20322;-71
2023/10/18 17:41:31;;;;;;;3.13;2.70;;;;;;;;;;6288387;28;20291;-70
2023/10/18 17:44:35;;;;;;;2.75;2.58;;;;;;;;;;6280656;28;20460;-70
2023/10/18 17:47:39;;;;;;;5.13;3.20;;;;;;;;;;6293273;28;20302;-71
2023/10/18 17:50:43;;;;;;;2.95;2.75;;;;;;;;;;6305358;28;20290;-71
2023/10/18 17:53:48;;;;;;;5.53;3.05;;;;;;;;;;6303163;28;20370;-72
2023/10/18 17:56:52;;;;;;;4.97;3.08;;;;;;;;;;6306253;28;20282;-71
2023/10/18 17:59:56;;;;;;;3.85;2.70;;;;;;;;;;6305330;28;20298;-71
2023/10/18 18:03:06;;;;;;;3.63;3.03;;;;;;;;;;6305361;28;20302;-72
2023/10/18 18:06:11;;;;;;;4.80;2.45;;;;;;;;;;6305780;28;20301;-70
2023/10/18 18:09:18;;;;;;;2.92;2.67;;;;;;;;;;6305490;28;20305;-70
2023/10/18 18:12:23;;;;;;;2.63;2.50;;;;;;;;;;6310145;28;20309;-72
2023/10/18 18:15:27;;;;;;;2.33;2.30;;;;;;;;;;6310145;28;20317;-71
2023/10/18 18:18:31;;;;;;;4.35;2.33;;;;;;;;;;6310393;28;20565;-70
2023/10/18 18:21:38;;;;;;;2.63;2.42;;;;;;;;;;6310986;28;20388;-71
2023/10/18 18:24:43;;;;;;;2.65;2.53;;;;;;;;;;6309938;28;20298;-71
2023/10/18 18:27:47;;;;;;;2.28;2.20;;;;;;;;;;6309970;28;20302;-71
2023/10/18 18:30:51;;;;;;;2.47;2.28;;;;;;;;;;6310203;28;20835;-72
2023/10/18 18:33:55;;;;;;;4.97;2.50;;;;;;;;;;6285200;28;20302;-70
2023/10/18 18:36:59;;;;;;;3.75;2.45;;;;;;;;;;6283502;28;20263;-72
2023/10/18 18:40:07;;;;;;;5.15;2.40;;;;;;;;;;6285710;28;20294;-70
2023/10/18 18:43:11;;;;;;;2.70;2.60;;;;;;;;;;6286119;28;20300;-72
2023/10/18 18:46:16;;;;;;;2.60;2.47;;;;;;;;;;6287172;28;20295;-71
2023/10/18 18:49:39;;;;;;;3.33;2.30;;;;;;;;;;6284855;28;20576;-72
2023/10/18 18:52:48;;;;;;;2.40;2.30;;;;;;;;;;6284932;28;20294;-70
2023/10/18 18:55:54;;;;;;;2.53;2.20;;;;;;;;;;6285041;28;20299;-72
2023/10/18 18:58:58;;;;;;;2.53;2.33;;;;;;;;;;6284556;28;20291;-72
2023/10/18 19:02:03;;;;;;;2.42;2.15;;;;;;;;;;6285145;28;20478;-71